Time;durP1;ratioP1;P1;durP2;ratioP2;P2;SDS_P1;SDS_P2;PMS_P1;PMS_P2;Temp;Humidity;BMP_temperature;BMP_pressure;BME280_temperature;BME280_humidity;BME280_pressure;Samples;Min_cycle;Max_cycle;Signal;HPM_P1;HPM_P2
2021/09/24 00:00:23;;;;;;;0.20;0.20;;;;;;;19.29;57.71;98881.13;5040692;28;20021;-67
2021/09/24 00:02:49;;;;;;;0.25;0.20;;;;;;;19.28;59.40;98885.75;5033690;28;20472;-68
2021/09/24 00:05:14;;;;;;;0.35;0.10;;;;;;;19.27;57.97;98894.13;5033564;28;20176;-68
2021/09/24 00:07:40;;;;;;;0.43;0.20;;;;;;;19.23;57.66;98891.03;5033690;28;20550;-68
2021/09/24 00:10:07;;;;;;;0.25;0.10;;;;;;;19.18;58.13;98886.25;5015985;28;20064;-68
2021/09/24 00:12:32;;;;;;;0.10;0.05;;;;;;;19.17;59.18;98905.56;5033371;28;20033;-68
2021/09/24 00:14:58;;;;;;;0.10;0.10;;;;;;;19.19;58.13;98906.16;5033512;28;20041;-68
2021/09/24 00:17:23;;;;;;;0.43;0.03;;;;;;;19.22;58.72;98911.16;5033559;28;20064;-68
2021/09/24 00:19:49;;;;;;;1.25;0.13;;;;;;;19.21;59.46;98913.06;5037876;28;20071;-68
2021/09/24 00:22:14;;;;;;;0.10;0.10;;;;;;;19.23;59.00;98915.53;5027353;28;20005;-67
2021/09/24 00:24:41;;;;;;;0.13;0.03;;;;;;;19.21;58.39;98915.78;5057268;28;20013;-69
2021/09/24 00:27:06;;;;;;;0.40;0.10;;;;;;;19.28;58.33;98910.25;5037802;28;20026;-68
2021/09/24 00:29:32;;;;;;;0.50;0.20;;;;;;;19.21;58.67;98923.13;5033294;28;20032;-68
2021/09/24 00:31:57;;;;;;;0.70;0.30;;;;;;;19.24;57.63;98925.38;5033163;28;20071;-68
2021/09/24 00:34:22;;;;;;;0.10;0.10;;;;;;;19.24;58.74;98930.84;5032815;28;20128;-68
2021/09/24 00:36:48;;;;;;;0.13;0.10;;;;;;;19.24;58.82;98928.09;5033269;28;20033;-68
2021/09/24 00:39:13;;;;;;;0.47;0.30;;;;;;;19.21;58.25;98934.84;5032922;28;20036;-69
2021/09/24 00:41:38;;;;;;;0.30;0.13;;;;;;;19.17;58.27;98930.91;5033133;28;20028;-68
2021/09/24 00:44:04;;;;;;;0.98;0.28;;;;;;;19.20;58.99;98943.25;5035196;28;20388;-69
2021/09/24 00:46:29;;;;;;;0.40;0.20;;;;;;;19.17;57.76;98943.69;5015352;28;20532;-68
2021/09/24 00:48:55;;;;;;;0.52;0.20;;;;;;;19.20;58.29;98940.50;5032961;28;20021;-68
2021/09/24 00:51:20;;;;;;;0.10;0.10;;;;;;;19.20;57.89;98943.25;5032763;28;20503;-67
2021/09/24 00:53:46;;;;;;;0.17;0.10;;;;;;;19.21;58.30;98950.34;5032981;28;20022;-68
2021/09/24 00:56:12;;;;;;;0.43;0.20;;;;;;;19.16;57.98;98948.31;5054810;28;20010;-69
2021/09/24 00:58:38;;;;;;;0.35;0.10;;;;;;;19.17;58.94;98960.88;5040318;28;20069;-68
2021/09/24 01:01:03;;;;;;;0.30;0.10;;;;;;;19.17;58.65;98949.97;5032885;28;20038;-68
2021/09/24 01:03:29;;;;;;;0.20;0.15;;;;;;;19.16;58.56;98953.75;5032970;28;20017;-69
2021/09/24 01:05:55;;;;;;;0.30;0.20;;;;;;;19.19;58.35;98953.31;5034280;28;20029;-68
2021/09/24 01:08:20;;;;;;;0.47;0.10;;;;;;;19.21;58.42;98966.69;5036649;28;20029;-68
2021/09/24 01:10:46;;;;;;;1.23;0.20;;;;;;;19.22;58.07;98960.19;5027928;28;20048;-69
2021/09/24 01:13:12;;;;;;;0.10;0.10;;;;;;;19.13;57.83;98965.06;5036124;28;20515;-68
2021/09/24 01:15:37;;;;;;;0.20;0.10;;;;;;;19.23;58.25;98972.75;5036831;28;20388;-68
2021/09/24 01:18:03;;;;;;;1.02;0.28;;;;;;;19.20;58.32;98978.66;5036590;28;20021;-68
2021/09/24 01:20:28;;;;;;;0.20;0.15;;;;;;;19.16;57.75;98980.16;5036490;28;20035;-68
2021/09/24 01:22:53;;;;;;;0.55;0.10;;;;;;;19.14;57.88;98982.25;5036668;28;20033;-68
2021/09/24 01:25:22;;;;;;;0.32;0.05;;;;;;;19.19;58.51;98980.53;5036527;28;20028;-68
2021/09/24 01:27:48;;;;;;;0.28;0.10;;;;;;;19.17;57.53;98976.38;5036727;28;20029;-68
2021/09/24 01:30:15;;;;;;;0.85;0.30;;;;;;;19.20;58.59;98982.22;5036382;28;20017;-68
2021/09/24 01:32:42;;;;;;;0.00;0.00;;;;;;;19.17;59.06;98987.28;5053821;28;20085;-69
2021/09/24 01:35:08;;;;;;;0.73;0.10;;;;;;;19.19;58.64;98986.00;5056111;28;20064;-69
2021/09/24 01:37:35;;;;;;;0.17;0.10;;;;;;;19.20;58.41;98997.72;5043753;28;20040;-68
2021/09/24 01:40:01;;;;;;;0.10;0.00;;;;;;;19.18;58.17;98997.09;5036691;28;20049;-67
2021/09/24 01:42:27;;;;;;;0.00;0.00;;;;;;;19.16;58.87;99001.94;5036310;28;20057;-68
2021/09/24 01:44:53;;;;;;;0.75;0.10;;;;;;;19.20;57.97;98993.09;5036213;28;20068;-68
2021/09/24 01:47:19;;;;;;;2.60;0.10;;;;;;;19.17;58.55;99012.63;5036126;28;20029;-68
2021/09/24 01:49:46;;;;;;;1.17;0.35;;;;;;;19.16;58.28;99012.84;5036124;28;20024;-68
2021/09/24 01:52:11;;;;;;;0.22;0.10;;;;;;;19.16;58.15;99018.28;5035745;28;20022;-68
2021/09/24 01:54:37;;;;;;;0.10;0.08;;;;;;;19.12;58.11;99020.59;5036121;28;20025;-68
2021/09/24 01:57:02;;;;;;;0.57;0.20;;;;;;;19.10;58.65;99035.50;5035895;28;20031;-68
2021/09/24 01:59:27;;;;;;;0.57;0.10;;;;;;;19.07;58.08;99052.28;5035883;28;20496;-68
2021/09/24 02:01:53;;;;;;;0.20;0.17;;;;;;;19.11;58.40;99037.16;5037759;28;20028;-69
2021/09/24 02:04:19;;;;;;;0.90;0.10;;;;;;;19.13;57.97;99049.50;5044636;28;20503;-68
2021/09/24 02:06:44;;;;;;;0.63;0.20;;;;;;;19.10;58.23;99055.38;5028640;28;20034;-68
2021/09/24 02:09:10;;;;;;;0.55;0.20;;;;;;;19.09;57.79;99055.59;5019099;28;20068;-68
2021/09/24 02:11:36;;;;;;;0.15;0.05;;;;;;;19.15;58.20;99054.75;5015991;28;20435;-68
2021/09/24 02:14:02;;;;;;;0.50;0.28;;;;;;;19.12;58.01;99066.06;5015818;28;20052;-68
2021/09/24 02:16:28;;;;;;;0.15;0.10;;;;;;;19.12;57.47;99076.97;5015388;28;20025;-68
2021/09/24 02:18:54;;;;;;;0.40;0.20;;;;;;;19.10;58.94;99079.06;5015012;28;20043;-68
2021/09/24 02:21:20;;;;;;;0.30;0.20;;;;;;;19.15;57.34;99077.38;5015678;28;20704;-68
2021/09/24 02:23:45;;;;;;;0.20;0.00;;;;;;;19.15;58.45;99093.72;5021217;28;20029;-68
2021/09/24 02:26:10;;;;;;;1.00;0.15;;;;;;;19.10;58.36;99084.50;5039768;28;20594;-68
2021/09/24 02:28:36;;;;;;;0.30;0.08;;;;;;;19.15;58.58;99092.88;5035668;28;20034;-68
2021/09/24 02:31:02;;;;;;;1.30;0.25;;;;;;;19.13;58.05;99094.97;5035094;28;20026;-68
2021/09/24 02:33:28;;;;;;;0.20;0.10;;;;;;;19.16;57.75;99097.28;5035134;28;20053;-68
2021/09/24 02:35:53;;;;;;;0.60;0.25;;;;;;;19.13;58.13;99103.13;5017519;28;20041;-68
2021/09/24 02:38:18;;;;;;;0.50;0.20;;;;;;;19.08;57.68;99109.25;5035132;28;20079;-68
2021/09/24 02:40:44;;;;;;;0.10;0.10;;;;;;;19.09;58.65;99110.91;5048436;28;20037;-68
2021/09/24 02:43:10;;;;;;;0.95;0.05;;;;;;;19.12;58.16;99115.09;5035251;28;20479;-68
2021/09/24 02:45:36;;;;;;;0.35;0.15;;;;;;;19.11;58.25;99113.41;5035120;28;20025;-68
2021/09/24 02:48:01;;;;;;;0.25;0.10;;;;;;;19.07;58.23;99132.09;5041818;28;20032;-68
2021/09/24 02:50:26;;;;;;;0.50;0.20;;;;;;;19.12;58.02;99121.38;5034703;28;20055;-68
2021/09/24 02:52:52;;;;;;;1.30;0.20;;;;;;;19.12;59.06;99076.97;5034819;28;20105;-68
2021/09/24 02:55:20;;;;;;;1.52;0.43;;;;;;;19.09;58.25;99091.00;5035028;28;20124;-68
2021/09/24 02:57:46;;;;;;;0.15;0.10;;;;;;;19.06;58.59;99072.41;5034997;28;20021;-68
2021/09/24 03:00:12;;;;;;;1.38;0.20;;;;;;;19.09;58.93;99170.00;5034525;28;20021;-69
2021/09/24 03:02:38;;;;;;;0.15;0.05;;;;;;;19.13;57.44;99160.34;5034884;28;20033;-68
2021/09/24 03:05:05;;;;;;;0.25;0.08;;;;;;;19.14;58.62;99162.00;5034572;28;20067;-68
2021/09/24 03:07:30;;;;;;;0.00;0.00;;;;;;;19.10;58.19;99168.94;5034689;28;20032;-68
2021/09/24 03:09:56;;;;;;;0.20;0.20;;;;;;;19.10;59.04;99171.66;5034799;28;20029;-68
2021/09/24 03:12:22;;;;;;;0.43;0.10;;;;;;;19.10;59.44;99160.78;5042590;28;20465;-68
2021/09/24 03:14:47;;;;;;;0.20;0.20;;;;;;;19.08;58.45;99158.25;5050577;28;20029;-69
2021/09/24 03:17:21;;;;;;;0.20;0.13;;;;;;;19.06;58.35;99165.00;5056534;28;20083;-69
2021/09/24 03:19:46;;;;;;;1.85;0.30;;;;;;;19.08;58.43;99165.59;5034658;28;20060;-68
2021/09/24 03:22:12;;;;;;;0.75;0.13;;;;;;;19.11;57.76;99173.34;5034337;28;20033;-68
2021/09/24 03:24:37;;;;;;;0.68;0.20;;;;;;;19.03;58.31;99149.09;5034302;28;20457;-68
2021/09/24 03:27:03;;;;;;;0.52;0.20;;;;;;;19.06;58.99;99154.94;5034183;28;20025;-69
2021/09/24 03:29:28;;;;;;;0.38;0.20;;;;;;;19.07;59.26;99161.22;5033602;28;20029;-68
2021/09/24 03:31:54;;;;;;;0.10;0.10;;;;;;;19.07;57.95;99156.59;5034180;28;20021;-68
2021/09/24 03:34:19;;;;;;;0.43;0.20;;;;;;;19.11;58.49;99162.44;5042881;28;20069;-65
2021/09/24 03:36:44;;;;;;;1.15;0.20;;;;;;;19.06;58.48;99154.09;5018452;28;20399;-68
2021/09/24 03:39:12;;;;;;;2.55;0.10;;;;;;;19.07;58.56;99161.22;5016484;28;20048;-68
2021/09/24 03:41:39;;;;;;;1.08;0.20;;;;;;;19.08;58.08;99158.25;5034256;28;20021;-69
2021/09/24 03:44:04;;;;;;;0.28;0.17;;;;;;;19.06;59.11;99165.00;5016061;28;20031;-68
2021/09/24 03:46:30;;;;;;;0.57;0.20;;;;;;;19.10;58.63;99171.66;5034228;28;20105;-69
2021/09/24 03:48:55;;;;;;;1.48;0.20;;;;;;;19.09;58.48;99170.00;5033809;28;20025;-68
2021/09/24 03:51:20;;;;;;;0.10;0.10;;;;;;;19.06;58.39;99170.44;5033851;28;20143;-68
2021/09/24 03:53:46;;;;;;;0.28;0.10;;;;;;;19.04;59.25;99172.53;5034072;28;20034;-68
2021/09/24 03:56:11;;;;;;;0.43;0.10;;;;;;;19.02;58.60;99188.25;5016116;28;20083;-68
2021/09/24 03:58:36;;;;;;;0.10;0.10;;;;;;;19.09;57.82;99189.06;5043573;28;20028;-68
2021/09/24 04:01:02;;;;;;;0.45;0.40;;;;;;;19.09;58.48;99202.69;5034000;28;20053;-68
2021/09/24 04:03:28;;;;;;;0.55;0.10;;;;;;;19.14;57.72;99211.03;5033636;28;20108;-68
2021/09/24 04:05:54;;;;;;;0.30;0.20;;;;;;;19.27;58.15;99205.53;5033738;28;20033;-69
2021/09/24 04:08:19;;;;;;;0.85;0.17;;;;;;;19.38;57.56;99201.31;5033593;28;20025;-69
2021/09/24 04:10:44;;;;;;;0.17;0.10;;;;;;;19.44;58.54;99201.25;5033672;28;20372;-69
2021/09/24 04:13:10;;;;;;;0.55;0.10;;;;;;;19.47;58.38;99206.25;5033158;28;20029;-68
2021/09/24 04:15:35;;;;;;;0.05;0.05;;;;;;;19.58;58.90;99220.31;5033488;28;20411;-68
2021/09/24 04:18:00;;;;;;;0.43;0.13;;;;;;;19.63;57.79;99225.94;5033307;28;20044;-68
2021/09/24 04:20:26;;;;;;;0.10;0.10;;;;;;;19.67;59.02;99233.47;5038470;28;20017;-69
2021/09/24 04:22:52;;;;;;;0.10;0.10;;;;;;;19.71;58.41;99234.69;5056858;28;20072;-69
2021/09/24 04:25:17;;;;;;;0.17;0.17;;;;;;;19.79;57.18;99244.50;5043078;28;20445;-68
2021/09/24 04:27:43;;;;;;;0.38;0.20;;;;;;;19.81;57.84;99256.03;5013716;28;20017;-69
2021/09/24 04:30:09;;;;;;;0.10;0.10;;;;;;;19.97;57.48;99258.22;5013583;28;20128;-68
2021/09/24 04:32:34;;;;;;;0.43;0.10;;;;;;;19.95;58.27;99263.06;5013615;28;20030;-69
2021/09/24 04:35:01;;;;;;;1.45;0.20;;;;;;;19.98;58.32;99273.53;5013253;28;20087;-68
2021/09/24 04:37:26;;;;;;;0.38;0.20;;;;;;;19.95;58.44;99284.06;5013463;28;20354;-68
2021/09/24 04:39:52;;;;;;;0.00;0.00;;;;;;;20.03;58.35;99298.28;5012746;28;20029;-68
2021/09/24 04:42:17;;;;;;;1.17;0.20;;;;;;;19.95;59.02;99314.88;5013210;28;20018;-68
2021/09/24 04:44:42;;;;;;;0.38;0.10;;;;;;;20.01;58.81;99315.94;5013637;28;20507;-68
2021/09/24 04:47:08;;;;;;;0.93;0.10;;;;;;;20.06;59.22;99318.81;5016350;28;20018;-68
2021/09/24 04:49:33;;;;;;;0.65;0.13;;;;;;;20.11;58.14;99328.00;5013711;28;20111;-68
2021/09/24 04:51:59;;;;;;;0.73;0.10;;;;;;;20.09;59.20;99337.47;5013275;28;20377;-68
2021/09/24 04:54:24;;;;;;;0.03;0.00;;;;;;;20.14;58.67;99343.09;5013252;28;20041;-68
2021/09/24 04:56:50;;;;;;;0.20;0.10;;;;;;;20.16;58.68;99351.09;5013578;28;20026;-68
2021/09/24 04:59:15;;;;;;;1.42;0.52;;;;;;;20.22;59.00;99355.66;5026603;28;20378;-68
2021/09/24 05:01:40;;;;;;;1.80;0.10;;;;;;;20.20;58.01;99360.50;5013524;28;20030;-68
2021/09/24 05:04:06;;;;;;;0.80;0.10;;;;;;;20.18;58.64;99359.91;4995765;28;20014;-68
2021/09/24 05:06:31;;;;;;;0.20;0.10;;;;;;;20.20;58.51;99358.63;5016081;28;20029;-65
2021/09/24 05:08:56;;;;;;;0.47;0.13;;;;;;;20.22;57.96;99361.97;5021107;28;20057;-68
2021/09/24 05:11:22;;;;;;;0.28;0.10;;;;;;;20.21;59.17;99362.19;5013214;28;20022;-68
2021/09/24 05:13:47;;;;;;;0.52;0.00;;;;;;;20.20;58.84;99360.50;5012964;28;20366;-68
2021/09/24 05:16:15;;;;;;;0.52;0.17;;;;;;;20.28;59.29;99371.16;5012693;28;20658;-68
2021/09/24 05:18:41;;;;;;;0.15;0.15;;;;;;;20.26;59.75;99374.09;5013109;28;20025;-68
2021/09/24 05:21:07;;;;;;;0.73;0.10;;;;;;;20.28;58.61;99377.44;5013039;28;20033;-68
2021/09/24 05:23:32;;;;;;;0.10;0.10;;;;;;;20.25;59.20;99374.31;4999395;28;20014;-68
2021/09/24 05:25:58;;;;;;;0.20;0.00;;;;;;;20.24;58.80;99386.28;5032877;28;20026;-69
2021/09/24 05:28:23;;;;;;;0.45;0.00;;;;;;;20.26;58.46;99385.03;5046929;28;20104;-69
2021/09/24 05:30:48;;;;;;;0.55;0.10;;;;;;;20.30;60.14;99393.59;5055916;28;20030;-69
2021/09/24 05:33:13;;;;;;;0.05;0.00;;;;;;;20.31;60.35;99389.81;5043089;28;20017;-68
2021/09/24 05:35:39;;;;;;;0.45;0.20;;;;;;;20.29;58.24;99394.66;5015088;28;20515;-68
2021/09/24 05:38:04;;;;;;;0.10;0.10;;;;;;;20.30;59.68;99397.16;5032400;28;20472;-68
2021/09/24 05:40:30;;;;;;;0.20;0.10;;;;;;;20.38;59.28;99404.28;5032812;28;20029;-69
2021/09/24 05:42:55;;;;;;;0.30;0.00;;;;;;;20.33;58.52;99406.84;5032897;28;20067;-68
2021/09/24 05:45:21;;;;;;;0.30;0.10;;;;;;;20.34;59.44;99401.16;5032522;28;20064;-68
2021/09/24 05:47:48;;;;;;;0.47;0.10;;;;;;;20.31;58.14;99408.91;5032873;28;20025;-68
2021/09/24 05:50:14;;;;;;;0.22;0.10;;;;;;;20.32;58.82;99411.44;5032287;28;20029;-68
2021/09/24 05:52:43;;;;;;;1.40;0.35;;;;;;;20.33;59.55;99424.03;5035096;28;20021;-68
2021/09/24 05:55:09;;;;;;;0.55;0.10;;;;;;;20.28;59.80;99439.38;5036396;28;20036;-68
2021/09/24 05:57:35;;;;;;;0.30;0.10;;;;;;;20.26;59.18;99445.06;5039122;28;20033;-66
2021/09/24 06:00:00;;;;;;;0.17;0.10;;;;;;;20.23;59.95;99440.03;5047359;28;20027;-68
2021/09/24 06:02:26;;;;;;;0.22;0.00;;;;;;;20.29;60.22;99432.84;5036020;28;20021;-68
2021/09/24 06:04:51;;;;;;;0.17;0.10;;;;;;;20.26;60.82;99445.06;5053486;28;20029;-68
2021/09/24 06:07:17;;;;;;;0.70;0.20;;;;;;;20.22;60.45;99443.81;5036015;28;20104;-68
2021/09/24 06:09:42;;;;;;;0.45;0.10;;;;;;;20.30;59.87;99448.19;5016728;28;20034;-68
2021/09/24 06:12:08;;;;;;;0.57;0.13;;;;;;;20.32;59.40;99454.25;5023786;28;20021;-68
2021/09/24 06:14:33;;;;;;;0.20;0.05;;;;;;;20.34;59.48;99446.72;5033727;28;20542;-68
2021/09/24 06:16:58;;;;;;;1.25;0.10;;;;;;;20.35;58.79;99446.50;5035513;28;20032;-68
2021/09/24 06:19:24;;;;;;;0.98;0.20;;;;;;;20.32;59.98;99444.19;5035288;28;20112;-68
2021/09/24 06:21:49;;;;;;;0.20;0.10;;;;;;;20.34;59.82;99442.09;5048214;28;20060;-68
2021/09/24 06:24:15;;;;;;;1.05;0.15;;;;;;;20.31;59.63;99453.41;5035420;28;20068;-68
2021/09/24 06:26:41;;;;;;;0.17;0.10;;;;;;;20.37;60.58;99446.28;5031847;28;20032;-68
2021/09/24 06:29:06;;;;;;;0.45;0.20;;;;;;;20.35;59.89;99457.41;5034516;28;20025;-68
2021/09/24 06:31:32;;;;;;;0.32;0.28;;;;;;;20.37;61.60;99466.22;5035740;28;20091;-68
2021/09/24 06:33:58;;;;;;;0.38;0.20;;;;;;;20.37;59.02;99463.47;5037953;28;20048;-68
2021/09/24 06:36:24;;;;;;;0.10;0.10;;;;;;;20.34;61.16;99480.28;5034822;28;20029;-68
2021/09/24 06:38:49;;;;;;;0.25;0.10;;;;;;;20.34;60.23;99487.66;5034892;28;20033;-68
2021/09/24 06:41:15;;;;;;;1.02;0.28;;;;;;;20.39;59.29;99485.09;5034819;28;20025;-68
2021/09/24 06:43:42;;;;;;;0.03;0.00;;;;;;;20.34;61.46;99484.91;5034353;28;20059;-68
2021/09/24 06:46:07;;;;;;;0.35;0.10;;;;;;;20.38;60.11;99513.44;5034796;28;20028;-68
2021/09/24 06:48:33;;;;;;;0.32;0.10;;;;;;;20.40;59.52;99517.63;5038551;28;20081;-67
2021/09/24 06:50:59;;;;;;;0.38;0.17;;;;;;;20.41;59.79;99521.22;5035908;28;20029;-68
2021/09/24 06:53:25;;;;;;;0.22;0.10;;;;;;;20.43;59.74;99527.31;5033837;28;20468;-68
2021/09/24 06:55:51;;;;;;;0.55;0.17;;;;;;;20.39;59.20;99537.78;5032145;28;20037;-69
2021/09/24 06:58:16;;;;;;;0.52;0.43;;;;;;;20.45;60.06;99549.75;5042391;28;20083;-70
2021/09/24 07:00:41;;;;;;;1.10;0.10;;;;;;;20.43;59.89;99546.41;5053677;28;20508;-68
2021/09/24 07:03:07;;;;;;;0.40;0.17;;;;;;;20.46;58.98;99553.31;5033230;28;20025;-68
2021/09/24 07:05:32;;;;;;;0.20;0.10;;;;;;;20.46;61.69;99554.16;5033922;28;20040;-69
2021/09/24 07:07:57;;;;;;;1.08;0.38;;;;;;;20.49;59.19;99553.75;5033488;28;20052;-69
2021/09/24 07:10:22;;;;;;;0.85;0.15;;;;;;;20.46;61.06;99564.25;5033961;28;20025;-69
2021/09/24 07:12:48;;;;;;;0.20;0.10;;;;;;;20.50;59.41;99570.97;5034568;28;20467;-70
2021/09/24 07:15:15;;;;;;;0.63;0.25;;;;;;;20.48;60.52;99575.78;5021788;28;20117;-70
2021/09/24 07:17:41;;;;;;;0.65;0.20;;;;;;;20.45;59.58;99568.88;5033783;28;20108;-69
2021/09/24 07:20:07;;;;;;;0.70;0.20;;;;;;;20.44;59.59;99572.66;5032627;28;20101;-70
2021/09/24 07:22:33;;;;;;;0.20;0.10;;;;;;;20.51;59.14;99572.66;5033975;28;20369;-70
2021/09/24 07:24:58;;;;;;;0.15;0.10;;;;;;;20.55;60.08;99574.72;5033860;28;20100;-69
2021/09/24 07:27:23;;;;;;;0.40;0.10;;;;;;;20.50;59.60;99576.44;5033591;28;20287;-70
2021/09/24 07:29:49;;;;;;;0.52;0.20;;;;;;;20.49;59.36;99581.06;5034071;28;20526;-70
2021/09/24 07:32:15;;;;;;;0.40;0.10;;;;;;;20.51;59.78;99584.41;5032692;28;20025;-69
2021/09/24 07:34:43;;;;;;;2.35;0.17;;;;;;;20.63;59.36;99585.38;5064354;22;20400;-67
2021/09/24 07:37:09;;;;;;;1.83;0.25;;;;;;;20.64;63.22;99584.31;5069014;28;20025;-66
2021/09/24 07:39:34;;;;;;;1.15;0.13;;;;;;;20.69;60.96;99587.28;5053266;28;20036;-63
2021/09/24 07:41:59;;;;;;;1.17;0.30;;;;;;;20.61;59.78;99590.22;5055815;28;20025;-66
2021/09/24 07:44:25;;;;;;;0.47;0.30;;;;;;;20.59;60.60;99599.69;5052893;28;20037;-69
2021/09/24 07:46:51;;;;;;;0.77;0.05;;;;;;;20.56;60.32;99597.41;5053334;28;20475;-69
2021/09/24 07:49:17;;;;;;;0.50;0.10;;;;;;;20.53;60.62;99609.59;5035115;28;20448;-70
2021/09/24 07:51:42;;;;;;;0.20;0.10;;;;;;;20.55;62.48;99615.69;5053071;28;20064;-70
2021/09/24 07:54:08;;;;;;;0.85;0.40;;;;;;;20.55;60.72;99618.41;5053106;28;20052;-70
2021/09/24 07:56:33;;;;;;;0.70;0.13;;;;;;;20.55;59.88;99629.31;5052951;28;20024;-70
2021/09/24 07:58:59;;;;;;;1.02;0.15;;;;;;;20.53;61.43;99636.06;5050927;28;20082;-70
2021/09/24 08:01:27;;;;;;;0.43;0.10;;;;;;;20.51;60.63;99633.53;5047545;28;20418;-70
2021/09/24 08:03:53;;;;;;;0.43;0.10;;;;;;;20.52;61.30;99637.94;5051106;28;20033;-70
2021/09/24 08:06:19;;;;;;;0.40;0.10;;;;;;;20.58;60.02;99653.47;5050583;28;20016;-70
2021/09/24 08:08:46;;;;;;;1.42;0.10;;;;;;;20.57;63.05;99654.53;5034927;28;20478;-70
2021/09/24 08:11:12;;;;;;;0.65;0.15;;;;;;;20.47;62.65;99643.19;5052645;28;20113;-70
2021/09/24 08:13:37;;;;;;;0.20;0.20;;;;;;;20.52;60.49;99654.34;5059819;28;20021;-71
2021/09/24 08:16:03;;;;;;;0.30;0.30;;;;;;;20.50;62.80;99652.88;5056718;28;20037;-70
2021/09/24 08:18:28;;;;;;;0.10;0.08;;;;;;;20.47;60.64;99659.56;5052483;28;20539;-70
2021/09/24 08:20:54;;;;;;;0.38;0.30;;;;;;;20.54;60.74;99670.50;5053302;28;20048;-70
2021/09/24 08:23:20;;;;;;;0.25;0.25;;;;;;;20.53;61.90;99669.66;5052345;28;20031;-70
2021/09/24 08:25:46;;;;;;;0.00;0.00;;;;;;;20.56;60.85;99668.38;5052158;28;20020;-70
2021/09/24 08:28:13;;;;;;;0.45;0.10;;;;;;;20.57;60.39;99670.91;5052932;28;20122;-70
2021/09/24 08:30:38;;;;;;;0.10;0.10;;;;;;;20.59;60.56;99674.25;5053298;28;20488;-70
2021/09/24 08:33:04;;;;;;;0.85;0.10;;;;;;;20.60;61.51;99686.84;5060804;28;20033;-70
2021/09/24 08:35:29;;;;;;;0.43;0.20;;;;;;;20.58;62.13;99686.22;5052899;28;20561;-70
2021/09/24 08:37:55;;;;;;;0.20;0.10;;;;;;;20.59;61.66;99698.81;5038796;28;20047;-70
2021/09/24 08:40:23;;;;;;;0.10;0.10;;;;;;;20.60;60.30;99703.22;5032979;28;20037;-70
2021/09/24 08:42:49;;;;;;;0.98;0.30;;;;;;;20.56;60.24;99704.72;5033304;28;20021;-70
2021/09/24 08:45:23;;;;;;;0.65;0.20;;;;;;;20.53;61.92;99701.59;5044587;28;20016;-70
2021/09/24 08:47:50;;;;;;;0.13;0.10;;;;;;;20.52;62.18;99700.75;5070777;28;20377;-70
2021/09/24 08:50:16;;;;;;;0.30;0.03;;;;;;;20.59;61.01;99707.00;5052795;28;20032;-70
2021/09/24 08:52:41;;;;;;;1.10;0.43;;;;;;;20.58;61.27;99704.50;5052661;28;20033;-70
2021/09/24 08:55:09;;;;;;;0.10;0.10;;;;;;;20.56;62.70;99704.72;5053094;28;20029;-70
2021/09/24 08:57:36;;;;;;;0.30;0.20;;;;;;;20.53;60.58;99716.06;5058818;28;20076;-70
2021/09/24 09:00:04;;;;;;;0.25;0.10;;;;;;;20.50;61.22;99716.50;5052768;28;20029;-69
2021/09/24 09:02:29;;;;;;;0.10;0.10;;;;;;;20.57;61.03;99725.50;5052541;28;20044;-69
2021/09/24 09:04:56;;;;;;;0.10;0.10;;;;;;;20.50;60.75;99735.59;5052756;28;20021;-70
2021/09/24 09:07:21;;;;;;;0.22;0.20;;;;;;;20.59;61.12;99733.47;5052967;28;20029;-70
2021/09/24 09:09:50;;;;;;;0.35;0.20;;;;;;;20.61;60.08;99740.41;5052981;28;20035;-70
2021/09/24 09:12:20;;;;;;;0.25;0.20;;;;;;;20.60;60.22;99746.91;5052739;28;20429;-70
2021/09/24 09:15:07;;;;;;;0.30;0.00;;;;;;;20.51;62.45;99744.63;5051845;28;20032;-70
2021/09/24 09:17:52;;;;;;;0.30;0.13;;;;;;;20.52;62.72;99757.25;5053041;28;20417;-70
2021/09/24 09:20:23;;;;;;;0.50;0.10;;;;;;;20.60;60.08;99757.00;5052511;28;20392;-70
2021/09/24 09:23:11;;;;;;;0.30;0.10;;;;;;;20.60;60.49;99763.31;5055407;28;20024;-69
2021/09/24 09:25:42;;;;;;;0.63;0.20;;;;;;;20.60;60.81;99762.47;5039361;28;20040;-70
2021/09/24 09:28:52;;;;;;;0.00;0.00;;;;;;;20.52;61.38;99755.34;5056011;28;20031;-70
2021/09/24 09:31:23;;;;;;;0.30;0.20;;;;;;;20.55;60.55;99754.91;5056428;28;20028;-70
2021/09/24 09:33:50;;;;;;;0.20;0.10;;;;;;;20.57;61.31;99758.28;5056295;28;20049;-70
2021/09/24 09:36:26;;;;;;;0.20;0.10;;;;;;;20.61;59.93;99759.53;5056467;28;20025;-70
2021/09/24 09:38:52;;;;;;;0.10;0.10;;;;;;;20.60;59.79;99763.31;5055758;28;20432;-69
2021/09/24 09:41:19;;;;;;;0.20;0.00;;;;;;;20.56;62.25;99758.47;5056465;28;20029;-69
2021/09/24 09:43:50;;;;;;;0.65;0.10;;;;;;;20.53;60.70;99762.47;5055487;28;20468;-69
2021/09/24 09:46:35;;;;;;;0.60;0.17;;;;;;;20.56;62.58;99762.06;5055978;28;20112;-68
2021/09/24 09:49:10;;;;;;;0.10;0.10;;;;;;;20.63;59.93;99762.88;5056983;28;20032;-69
2021/09/24 09:51:41;;;;;;;0.82;0.10;;;;;;;20.59;60.83;99756.16;5056189;28;20075;-69
2021/09/24 09:54:08;;;;;;;0.22;0.00;;;;;;;20.64;59.75;99764.56;5065252;28;20033;-69
2021/09/24 09:56:42;;;;;;;1.40;0.10;;;;;;;20.63;60.25;99773.78;5079187;28;20025;-69
2021/09/24 09:59:25;;;;;;;0.20;0.10;;;;;;;20.58;61.92;99775.50;5054847;28;20040;-69
2021/09/24 10:02:07;;;;;;;1.85;0.40;;;;;;;20.62;60.08;99787.66;5055220;28;20476;-69
2021/09/24 10:04:40;;;;;;;0.17;0.10;;;;;;;20.66;61.26;99791.69;5055422;28;20033;-69
2021/09/24 10:07:25;;;;;;;1.17;0.00;;;;;;;20.62;60.57;99793.97;5055065;28;20063;-69
2021/09/24 10:10:12;;;;;;;0.40;0.20;;;;;;;20.63;61.72;99797.53;5121091;23;20397;-69
2021/09/24 10:12:39;;;;;;;0.47;0.20;;;;;;;20.61;60.29;99805.94;5102043;28;20026;-69
2021/09/24 10:15:07;;;;;;;0.30;0.20;;;;;;;20.66;60.81;99811.63;5095161;28;20031;-69
2021/09/24 10:17:33;;;;;;;0.45;0.17;;;;;;;20.63;60.86;99817.47;5094941;28;20027;-68
2021/09/24 10:19:58;;;;;;;0.10;0.10;;;;;;;20.61;61.15;99819.59;5076905;28;20028;-68
2021/09/24 10:22:25;;;;;;;2.08;0.30;;;;;;;20.63;61.07;99828.41;5095159;28;20031;-68
2021/09/24 10:24:53;;;;;;;0.10;0.10;;;;;;;20.65;59.52;99842.69;5077765;28;20058;-68
2021/09/24 10:27:26;;;;;;;0.30;0.10;;;;;;;20.60;60.74;99849.84;5094930;28;20474;-68
2021/09/24 10:29:52;;;;;;;1.70;0.52;;;;;;;20.59;61.39;99840.81;5094872;28;20390;-67
2021/09/24 10:32:26;;;;;;;0.20;0.10;;;;;;;20.65;60.45;99848.16;5094133;28;20486;-69
2021/09/24 10:35:07;;;;;;;0.93;0.10;;;;;;;20.66;60.82;99840.84;5095061;28;20032;-68
2021/09/24 10:37:35;;;;;;;0.65;0.10;;;;;;;20.62;60.49;99843.13;5098515;28;20052;-69
2021/09/24 10:40:26;;;;;;;0.40;0.10;;;;;;;20.64;61.19;99851.94;5078411;28;20016;-68
2021/09/24 10:42:57;;;;;;;0.22;0.10;;;;;;;20.69;60.01;99849.44;5075331;28;20025;-68
2021/09/24 10:45:42;;;;;;;0.45;0.10;;;;;;;20.65;60.81;99859.06;5074854;28;20044;-69
2021/09/24 10:48:20;;;;;;;0.52;0.10;;;;;;;20.63;59.69;99861.19;5075033;28;20497;-68
2021/09/24 10:50:47;;;;;;;1.10;0.20;;;;;;;20.64;59.80;99864.75;5074985;28;20074;-68
2021/09/24 10:53:19;;;;;;;0.20;0.10;;;;;;;20.66;61.22;99860.78;5074857;28;20029;-68
2021/09/24 10:56:07;;;;;;;0.40;0.20;;;;;;;20.68;60.29;99861.41;5057236;28;20024;-68
2021/09/24 10:58:39;;;;;;;0.20;0.20;;;;;;;20.65;61.50;99864.53;5074751;28;20040;-68
2021/09/24 11:01:15;;;;;;;0.75;0.40;;;;;;;20.71;60.18;99862.88;5075554;28;20466;-68
2021/09/24 11:03:57;;;;;;;0.55;0.25;;;;;;;20.65;61.00;99859.06;5076563;28;20098;-68
2021/09/24 11:06:38;;;;;;;0.95;0.20;;;;;;;20.72;59.98;99873.59;5087097;28;20161;-68
2021/09/24 11:09:05;;;;;;;0.75;0.30;;;;;;;20.62;62.94;99875.03;5099742;28;20044;-69
2021/09/24 11:11:33;;;;;;;0.38;0.10;;;;;;;20.62;61.58;99892.28;5094208;28;20020;-67
2021/09/24 11:14:00;;;;;;;0.10;0.10;;;;;;;20.59;61.49;99887.22;5074393;28;20058;-68
2021/09/24 11:16:44;;;;;;;0.95;0.15;;;;;;;20.66;60.96;99885.38;5092826;28;20069;-69
2021/09/24 11:19:43;;;;;;;0.43;0.10;;;;;;;20.61;60.95;99893.31;5059139;28;20055;-69
2021/09/24 11:22:13;;;;;;;0.88;0.32;;;;;;;20.63;62.16;99888.50;4987403;28;20492;-70
2021/09/24 11:25:01;;;;;;;0.77;0.25;;;;;;;20.68;61.01;99894.19;4980438;28;20061;-68
2021/09/24 11:27:36;;;;;;;2.53;0.70;;;;;;;20.66;62.67;99909.09;4876401;29;20056;-68
2021/09/24 11:30:02;;;;;;;1.67;0.32;;;;;;;20.65;62.23;99908.22;4864972;29;20044;-67
2021/09/24 11:32:49;;;;;;;2.17;0.70;;;;;;;20.63;60.68;99910.34;4878083;29;20093;-68
2021/09/24 11:35:29;;;;;;;1.45;0.50;;;;;;;20.60;60.90;99909.91;4869480;29;20072;-67